createdAt,value
2023-04-03T00:00:46.991Z,0.56
2023-04-03T00:01:47.020Z,0.50
2023-04-03T00:02:47.100Z,0.26
2023-04-03T00:03:47.048Z,0.31
2023-04-03T00:04:47.064Z,0.40
2023-04-03T00:05:47.060Z,0.39
2023-04-03T00:06:47.074Z,0.54
2023-04-03T00:07:47.107Z,0.40
2023-04-03T00:08:47.108Z,0.34
2023-04-03T00:09:47.140Z,0.43
2023-04-03T00:10:47.142Z,0.37
2023-04-03T00:11:47.171Z,0.37
2023-04-03T00:12:47.161Z,0.60
2023-04-03T00:13:47.185Z,0.48
2023-04-03T00:14:47.191Z,0.39
2023-04-03T00:15:47.224Z,0.36
2023-04-03T00:16:47.240Z,0.50
2023-04-03T00:17:47.289Z,0.44
2023-04-03T00:18:47.260Z,1.24
2023-04-03T00:19:47.279Z,0.51
2023-04-03T00:20:47.298Z,0.35
2023-04-03T00:21:47.301Z,0.41
2023-04-03T00:22:47.333Z,0.34
2023-04-03T00:23:47.331Z,0.49
2023-04-03T00:24:47.369Z,0.43
2023-04-03T00:25:47.379Z,0.47
2023-04-03T00:26:47.403Z,0.28
2023-04-03T00:27:47.445Z,0.41
2023-04-03T00:28:47.437Z,0.35
2023-04-03T00:29:47.464Z,0.30
2023-04-03T00:30:47.600Z,0.45
2023-04-03T00:31:47.462Z,0.48
2023-04-03T00:32:47.509Z,0.31
2023-04-03T00:33:47.525Z,0.39
2023-04-03T00:34:47.524Z,0.35
2023-04-03T00:35:47.576Z,0.34
2023-04-03T00:36:47.651Z,0.44
2023-04-03T00:37:47.605Z,0.35
2023-04-03T00:38:47.605Z,0.36
2023-04-03T00:39:47.609Z,0.39
2023-04-03T00:40:47.641Z,0.33
2023-04-03T00:41:47.651Z,0.49
2023-04-03T00:42:47.687Z,0.42
2023-04-03T00:43:47.704Z,0.40
2023-04-03T00:44:47.920Z,0.49
2023-04-03T00:45:47.734Z,0.38
2023-04-03T00:46:47.751Z,0.44
2023-04-03T00:47:47.778Z,0.24
2023-04-03T00:48:47.790Z,0.36
2023-04-03T00:49:47.815Z,0.62
2023-04-03T00:50:47.814Z,0.45
2023-04-03T00:51:47.870Z,0.40
2023-04-03T00:52:47.854Z,0.32
2023-04-03T00:53:47.805Z,0.60
2023-04-03T00:54:47.775Z,0.39
2023-04-03T00:55:47.718Z,0.46
2023-04-03T00:56:48.209Z,0.48
2023-04-03T00:57:47.640Z,0.48
2023-04-03T00:58:47.577Z,0.45
2023-04-03T00:59:47.534Z,0.40
2023-04-03T01:00:47.504Z,0.38
2023-04-03T01:01:47.479Z,0.38
2023-04-03T01:02:47.433Z,0.42
2023-04-03T01:03:47.495Z,0.40
2023-04-03T01:04:47.469Z,0.33
2023-04-03T01:05:47.486Z,0.42
2023-04-03T01:06:47.495Z,0.32
2023-04-03T01:07:47.518Z,0.32
2023-04-03T01:08:47.562Z,0.42
2023-04-03T01:09:47.572Z,0.37
2023-04-03T01:10:47.591Z,0.43
2023-04-03T01:11:47.612Z,0.44
2023-04-03T01:12:47.638Z,0.35
2023-04-03T01:13:47.652Z,0.37
2023-04-03T01:14:47.675Z,0.45
2023-04-03T01:15:47.737Z,0.39
2023-04-03T01:16:47.710Z,0.49
2023-04-03T01:17:47.756Z,0.25
2023-04-03T01:18:47.770Z,0.50
2023-04-03T01:19:47.774Z,0.32
2023-04-03T01:20:47.803Z,0.54
2023-04-03T01:21:47.849Z,0.31
2023-04-03T01:22:47.913Z,0.45
2023-04-03T01:23:47.889Z,0.36
2023-04-03T01:24:47.895Z,0.28
2023-04-03T01:25:47.890Z,0.29
2023-04-03T01:26:47.947Z,0.29
2023-04-03T01:27:47.945Z,0.27
2023-04-03T01:28:47.979Z,0.38
2023-04-03T01:29:47.983Z,0.42
2023-04-03T01:30:48.019Z,0.43
2023-04-03T01:31:48.088Z,0.43
2023-04-03T01:32:48.079Z,0.33
2023-04-03T01:33:48.011Z,0.34
2023-04-03T01:34:47.961Z,0.45
2023-04-03T01:35:47.943Z,0.34
2023-04-03T01:36:47.881Z,0.28
2023-04-03T01:37:47.833Z,0.24
2023-04-03T01:38:47.802Z,0.47
2023-04-03T01:39:47.757Z,0.33
2023-04-03T01:40:47.708Z,0.35
2023-04-03T01:41:47.661Z,0.43
2023-04-03T01:42:47.684Z,0.26
2023-04-03T01:43:47.693Z,0.30
2023-04-03T01:44:47.729Z,0.34
2023-04-03T01:45:47.822Z,0.36
2023-04-03T01:46:47.772Z,0.26
2023-04-03T01:47:47.856Z,0.33
2023-04-03T01:48:47.815Z,0.26
2023-04-03T01:49:47.825Z,0.33
2023-04-03T01:50:47.848Z,0.32
2023-04-03T01:51:47.892Z,0.33
2023-04-03T01:52:47.903Z,0.35
2023-04-03T01:53:47.935Z,0.32
2023-04-03T01:54:47.956Z,0.38
2023-04-03T01:55:47.976Z,0.37
2023-04-03T01:56:47.990Z,0.27
2023-04-03T01:57:48.009Z,0.41
2023-04-03T01:58:48.051Z,0.32
2023-04-03T01:59:48.051Z,0.48
2023-04-03T02:00:48.105Z,0.35
2023-04-03T02:01:48.105Z,0.39
2023-04-03T02:02:48.148Z,0.44
2023-04-03T02:03:48.204Z,0.28
2023-04-03T02:04:48.189Z,0.39
2023-04-03T02:05:48.201Z,0.38
2023-04-03T02:06:48.227Z,0.26
2023-04-03T02:07:48.236Z,0.35
2023-04-03T02:08:48.264Z,0.28
2023-04-03T02:09:48.290Z,0.24
2023-04-03T02:10:48.302Z,0.63
2023-04-03T02:11:48.335Z,0.39
2023-04-03T02:12:48.360Z,0.33
2023-04-03T02:13:48.407Z,0.35
2023-04-03T02:14:48.412Z,0.35
2023-04-03T02:15:48.439Z,0.35
2023-04-03T02:16:48.497Z,0.30
2023-04-03T02:17:48.511Z,0.17
2023-04-03T02:18:48.515Z,0.23
2023-04-03T02:19:48.552Z,0.28
2023-04-03T02:20:48.561Z,0.42
2023-04-03T02:21:48.782Z,0.42
2023-04-03T02:22:48.594Z,0.55
2023-04-03T02:23:48.636Z,0.39
2023-04-03T02:24:48.663Z,0.35
2023-04-03T02:25:48.666Z,0.42
2023-04-03T02:26:48.705Z,0.31
2023-04-03T02:27:48.719Z,0.32
2023-04-03T02:28:48.750Z,0.32
2023-04-03T02:29:48.767Z,0.30
2023-04-03T02:30:48.795Z,0.31
2023-04-03T02:31:48.804Z,0.44
2023-04-03T02:32:48.841Z,0.49
2023-04-03T02:33:48.843Z,0.45
2023-04-03T02:34:48.886Z,0.24
2023-04-03T02:35:48.985Z,0.32
2023-04-03T02:36:48.908Z,0.30
2023-04-03T02:37:48.921Z,0.33
2023-04-03T02:38:48.971Z,0.46
2023-04-03T02:39:48.995Z,0.41
2023-04-03T02:40:49.005Z,0.35
2023-04-03T02:41:49.031Z,0.43
2023-04-03T02:42:49.051Z,0.32
2023-04-03T02:43:49.072Z,0.37
2023-04-03T02:44:49.092Z,0.45
2023-04-03T02:45:49.116Z,0.27
2023-04-03T02:46:49.118Z,0.49
2023-04-03T02:47:49.150Z,0.33
2023-04-03T02:48:49.154Z,0.52
2023-04-03T02:49:49.202Z,0.29
2023-04-03T02:50:49.210Z,0.36
2023-04-03T02:51:49.224Z,0.34
2023-04-03T02:52:49.251Z,0.39
2023-04-03T02:53:49.199Z,0.44
2023-04-03T02:54:49.166Z,0.40
2023-04-03T02:55:49.123Z,0.28
2023-04-03T02:56:49.094Z,0.35
2023-04-03T02:57:49.031Z,0.56
2023-04-03T02:58:48.992Z,0.31
2023-04-03T02:59:48.959Z,0.29
2023-04-03T03:00:48.897Z,0.33
2023-04-03T03:01:48.888Z,0.40
2023-04-03T03:02:48.828Z,0.28
2023-04-03T03:03:48.811Z,0.33
2023-04-03T03:04:48.878Z,0.24
2023-04-03T03:05:48.867Z,0.37
2023-04-03T03:06:48.877Z,0.36
2023-04-03T03:07:48.908Z,0.24
2023-04-03T03:08:48.923Z,0.43
2023-04-03T03:09:48.954Z,0.27
2023-04-03T03:10:48.973Z,0.39
2023-04-03T03:11:48.985Z,0.21
2023-04-03T03:12:49.014Z,0.55
2023-04-03T03:13:49.026Z,0.34
2023-04-03T03:14:49.047Z,0.35
2023-04-03T03:15:49.095Z,0.30
2023-04-03T03:16:49.099Z,0.22
2023-04-03T03:17:49.154Z,0.26
2023-04-03T03:18:49.163Z,0.35
2023-04-03T03:19:49.185Z,0.31
2023-04-03T03:20:49.188Z,0.35
2023-04-03T03:21:49.194Z,0.36
2023-04-03T03:22:49.221Z,0.48
2023-04-03T03:23:49.255Z,0.24
2023-04-03T03:24:49.280Z,0.23
2023-04-03T03:25:49.300Z,0.27
2023-04-03T03:26:49.398Z,0.28
2023-04-03T03:27:49.373Z,0.29
2023-04-03T03:28:49.375Z,0.34
2023-04-03T03:29:49.394Z,0.36
2023-04-03T03:30:49.415Z,0.29
2023-04-03T03:31:49.527Z,0.49
2023-04-03T03:32:49.561Z,0.30
2023-04-03T03:33:49.495Z,0.29
2023-04-03T03:34:49.504Z,0.65
2023-04-03T03:35:49.579Z,0.33
2023-04-03T03:36:49.538Z,0.31
2023-04-03T03:37:49.576Z,0.40
2023-04-03T03:38:49.598Z,0.22
2023-04-03T03:39:49.636Z,0.52
2023-04-03T03:40:49.656Z,0.22
2023-04-03T03:41:49.673Z,0.52
2023-04-03T03:42:49.690Z,0.17
2023-04-03T03:43:49.714Z,0.23
2023-04-03T03:44:49.810Z,0.33
2023-04-03T03:45:49.776Z,0.38
2023-04-03T03:46:49.819Z,0.43
2023-04-03T03:47:49.839Z,0.36
2023-04-03T03:48:49.848Z,0.31
2023-04-03T03:49:49.863Z,0.34
2023-04-03T03:50:49.920Z,0.35
2023-04-03T03:51:49.938Z,0.34
2023-04-03T03:52:49.940Z,0.29
2023-04-03T03:53:49.960Z,0.30
2023-04-03T03:54:49.995Z,0.43
2023-04-03T03:55:50.021Z,0.25
2023-04-03T03:56:50.079Z,0.32
2023-04-03T03:57:50.069Z,0.26
2023-04-03T03:58:50.077Z,0.30
2023-04-03T03:59:50.102Z,0.35
2023-04-03T04:00:50.130Z,0.18
2023-04-03T04:01:50.180Z,0.33
2023-04-03T04:02:50.242Z,0.33
2023-04-03T04:03:50.291Z,0.42
2023-04-03T04:04:50.207Z,0.81
2023-04-03T04:05:50.280Z,0.22
2023-04-03T04:06:50.224Z,0.31
2023-04-03T04:07:50.241Z,0.34
2023-04-03T04:08:50.246Z,0.39
2023-04-03T04:09:50.253Z,0.33
2023-04-03T04:10:50.287Z,0.29
2023-04-03T04:11:50.303Z,0.13
2023-04-03T04:12:50.325Z,0.42
2023-04-03T04:13:50.349Z,0.30
2023-04-03T04:14:50.369Z,0.26
2023-04-03T04:15:50.406Z,0.30
2023-04-03T04:16:50.513Z,0.31
2023-04-03T04:17:50.496Z,0.28
2023-04-03T04:18:50.520Z,0.49
2023-04-03T04:19:50.514Z,0.39
2023-04-03T04:20:50.500Z,0.39
2023-04-03T04:21:50.543Z,0.18
2023-04-03T04:22:50.525Z,0.46
2023-04-03T04:23:50.536Z,0.34
2023-04-03T04:24:50.572Z,0.30
2023-04-03T04:25:50.597Z,0.22
2023-04-03T04:26:50.595Z,0.26
2023-04-03T04:27:50.605Z,0.26
2023-04-03T04:28:50.621Z,0.27
2023-04-03T04:29:50.625Z,0.27
2023-04-03T04:30:50.657Z,0.43
2023-04-03T04:31:50.623Z,0.16
2023-04-03T04:32:50.663Z,0.27
2023-04-03T04:33:50.613Z,0.25
2023-04-03T04:34:50.641Z,0.29
2023-04-03T04:35:50.844Z,0.30
2023-04-03T04:36:50.612Z,0.18
2023-04-03T04:37:50.578Z,0.46
2023-04-03T04:38:50.572Z,0.27
2023-04-03T04:39:50.612Z,0.23
2023-04-03T04:40:50.604Z,0.34
2023-04-03T04:41:50.607Z,0.40
2023-04-03T04:42:50.606Z,0.26
2023-04-03T04:43:50.628Z,0.49
2023-04-03T04:44:50.645Z,0.33
2023-04-03T04:45:50.663Z,0.26
2023-04-03T04:46:50.682Z,0.34
2023-04-03T04:47:50.790Z,0.35
2023-04-03T04:48:50.735Z,0.38
2023-04-03T04:49:50.724Z,0.34
2023-04-03T04:50:50.891Z,0.38
2023-04-03T04:51:52.348Z,0.27
2023-04-03T04:52:50.864Z,0.40
2023-04-03T04:53:50.809Z,0.29
2023-04-03T04:54:50.810Z,0.31
2023-04-03T04:55:50.867Z,0.36
2023-04-03T04:56:50.884Z,0.39
2023-04-03T04:57:50.866Z,0.22
2023-04-03T04:58:50.872Z,0.27
2023-04-03T04:59:50.887Z,0.28
2023-04-03T05:00:50.915Z,0.36
2023-04-03T05:01:50.991Z,0.20
2023-04-03T05:02:51.027Z,0.46
2023-04-03T05:03:50.975Z,0.16
2023-04-03T05:04:51.092Z,0.32
2023-04-03T05:05:51.018Z,0.28
2023-04-03T05:06:51.042Z,0.39
2023-04-03T05:07:51.168Z,0.43
2023-04-03T05:08:51.093Z,0.30
2023-04-03T05:09:51.090Z,0.35
2023-04-03T05:10:51.101Z,0.21
2023-04-03T05:11:51.150Z,0.35
2023-04-03T05:12:51.159Z,0.24
2023-04-03T05:13:51.191Z,0.42
2023-04-03T05:14:51.226Z,0.32
2023-04-03T05:15:51.309Z,0.31
2023-04-03T05:16:52.610Z,0.23
2023-04-03T05:17:51.305Z,0.25
2023-04-03T05:18:51.318Z,0.22
2023-04-03T05:19:51.366Z,0.53
2023-04-03T05:20:51.383Z,0.24
2023-04-03T05:21:51.479Z,0.32
2023-04-03T05:22:51.407Z,0.51
2023-04-03T05:23:51.428Z,0.37
2023-04-03T05:24:51.446Z,0.42
2023-04-03T05:25:51.479Z,0.53
2023-04-03T05:26:51.508Z,0.54
2023-04-03T05:27:51.522Z,0.66
2023-04-03T05:28:51.546Z,0.49
2023-04-03T05:29:51.572Z,0.49
2023-04-03T05:30:51.561Z,0.34
2023-04-03T05:31:51.599Z,0.63
2023-04-03T05:32:51.486Z,0.49
2023-04-03T05:33:51.439Z,0.40
2023-04-03T05:34:51.344Z,0.53
2023-04-03T05:35:51.321Z,0.48
2023-04-03T05:36:51.305Z,0.42
2023-04-03T05:37:51.206Z,0.40
2023-04-03T05:38:51.148Z,0.48
2023-04-03T05:39:51.129Z,0.38
2023-04-03T05:42:09.830Z,0.62
2023-04-03T05:43:09.819Z,0.34
2023-04-03T05:44:09.792Z,0.35
2023-04-03T05:45:09.791Z,0.45
2023-04-03T05:46:09.776Z,0.28
2023-04-03T05:47:09.769Z,0.49
2023-04-03T05:48:09.793Z,0.19
2023-04-03T05:49:09.762Z,0.46
2023-04-03T05:50:10.515Z,0.47
2023-04-03T05:51:09.696Z,0.53
2023-04-03T05:52:09.727Z,0.48
2023-04-03T05:53:09.670Z,0.41
2023-04-03T05:54:09.769Z,0.42
2023-04-03T05:55:09.735Z,0.40
2023-04-03T05:56:09.680Z,0.51
2023-04-03T05:57:09.661Z,0.42
2023-04-03T05:58:11.609Z,0.56
2023-04-03T05:59:09.606Z,0.20
2023-04-03T06:00:09.582Z,0.39
2023-04-03T06:01:09.579Z,0.43
2023-04-03T06:02:09.566Z,0.56
2023-04-03T06:03:09.736Z,0.29
2023-04-03T06:04:09.602Z,0.45
2023-04-03T06:05:09.709Z,0.40
2023-04-03T06:06:09.660Z,0.48
2023-04-03T06:07:09.615Z,0.27
2023-04-03T06:08:09.586Z,0.54
2023-04-03T06:09:09.594Z,0.30
2023-04-03T06:10:09.613Z,0.32
2023-04-03T06:11:09.726Z,0.30
2023-04-03T06:12:09.705Z,0.56
2023-04-03T06:13:09.688Z,0.51
2023-04-03T06:14:09.697Z,0.36
2023-04-03T06:15:09.707Z,0.32
2023-04-03T06:16:09.725Z,0.38
2023-04-03T06:17:09.773Z,0.37
2023-04-03T06:18:09.816Z,0.31
2023-04-03T06:19:09.783Z,0.49
2023-04-03T06:20:09.805Z,0.40
2023-04-03T06:21:09.817Z,0.41
2023-04-03T06:22:09.838Z,0.32
2023-04-03T06:23:09.885Z,0.27
2023-04-03T06:24:09.873Z,0.41
2023-04-03T06:25:09.893Z,0.36
2023-04-03T06:26:09.918Z,0.55
2023-04-03T06:27:09.914Z,0.34
2023-04-03T06:28:09.920Z,0.42
2023-04-03T06:29:09.939Z,0.45
2023-04-03T06:30:10.003Z,0.58
2023-04-03T06:31:09.984Z,0.40
2023-04-03T06:32:09.956Z,0.36
2023-04-03T06:33:10.061Z,0.41
2023-04-03T06:34:09.995Z,0.53
2023-04-03T06:35:09.998Z,0.45
2023-04-03T06:36:10.076Z,0.34
2023-04-03T06:37:10.035Z,0.54
2023-04-03T06:38:10.093Z,0.20
2023-04-03T06:39:10.038Z,0.29
2023-04-03T06:40:11.030Z,0.43
2023-04-03T06:41:10.075Z,0.52
2023-04-03T06:42:10.104Z,0.38
2023-04-03T06:43:10.101Z,0.27
2023-04-03T06:44:10.112Z,0.42
2023-04-03T06:45:10.120Z,0.40
2023-04-03T06:46:10.167Z,0.41
2023-04-03T06:47:10.531Z,0.61
2023-04-03T06:48:10.228Z,0.55
2023-04-03T06:49:10.222Z,0.52
2023-04-03T06:50:10.189Z,0.24
2023-04-03T06:51:10.193Z,0.63
2023-04-03T06:52:10.230Z,0.54
2023-04-03T06:53:10.212Z,0.43
2023-04-03T06:54:10.238Z,0.35
2023-04-03T06:55:10.235Z,0.44
2023-04-03T06:56:10.171Z,0.36
2023-04-03T06:57:10.240Z,0.51
2023-04-03T06:58:10.270Z,0.56
2023-04-03T06:59:10.137Z,0.33
2023-04-03T07:00:10.090Z,0.46
2023-04-03T07:01:10.072Z,0.41
2023-04-03T07:02:10.089Z,0.33
2023-04-03T07:03:10.039Z,0.56
2023-04-03T07:04:10.655Z,0.33
2023-04-03T07:05:10.052Z,0.45
2023-04-03T07:06:09.975Z,0.41
2023-04-03T07:07:09.944Z,0.37
2023-04-03T07:08:09.943Z,0.46
2023-04-03T07:09:09.916Z,0.53
2023-04-03T07:10:09.878Z,0.64
2023-04-03T07:11:09.853Z,0.47
2023-04-03T07:12:09.847Z,0.44
2023-04-03T07:13:09.927Z,0.43
2023-04-03T07:14:09.859Z,0.55
2023-04-03T07:15:09.860Z,0.40
2023-04-03T07:16:10.015Z,0.45
2023-04-03T07:17:10.540Z,0.39
2023-04-03T07:18:09.993Z,0.57
2023-04-03T07:19:10.087Z,0.62
2023-04-03T07:20:09.951Z,0.39
2023-04-03T07:21:09.932Z,0.37
2023-04-03T07:22:09.961Z,0.47
2023-04-03T07:23:09.969Z,0.66
2023-04-03T07:24:12.966Z,0.47
2023-04-03T07:25:10.972Z,0.32
2023-04-03T07:26:09.976Z,0.46
2023-04-03T07:27:09.912Z,0.50
2023-04-03T07:28:09.904Z,0.42
2023-04-03T07:29:09.886Z,0.51
2023-04-03T07:30:09.883Z,0.47
2023-04-03T07:31:09.956Z,0.42
2023-04-03T07:32:09.844Z,0.43
2023-04-03T07:33:09.874Z,0.61
2023-04-03T07:34:09.778Z,0.43
2023-04-03T07:35:09.781Z,0.57
2023-04-03T07:36:09.733Z,0.49
2023-04-03T07:37:09.720Z,0.48
2023-04-03T07:38:09.689Z,0.64
2023-04-03T07:39:09.719Z,0.57
2023-04-03T07:40:09.693Z,0.58
2023-04-03T07:41:09.688Z,0.41
2023-04-03T07:42:09.653Z,0.31
2023-04-03T07:43:09.668Z,0.58
2023-04-03T07:44:09.659Z,0.41
2023-04-03T07:45:09.660Z,0.55
2023-04-03T07:46:09.721Z,0.28
2023-04-03T07:47:09.715Z,0.59
2023-04-03T07:48:09.674Z,0.54
2023-04-03T07:49:09.743Z,0.51
2023-04-03T07:50:09.730Z,0.47
2023-04-03T07:51:09.722Z,0.49
2023-04-03T07:52:09.725Z,0.52
2023-04-03T07:53:09.762Z,0.63
2023-04-03T07:54:09.759Z,0.61
2023-04-03T07:55:10.543Z,0.86
2023-04-03T07:56:09.771Z,0.45
2023-04-03T07:57:09.834Z,0.56
2023-04-03T07:58:09.807Z,0.53
2023-04-03T07:59:09.835Z,0.66
2023-04-03T08:00:09.871Z,0.37
2023-04-03T08:01:09.842Z,0.37
2023-04-03T08:02:09.878Z,0.46
2023-04-03T08:03:11.267Z,0.61
2023-04-03T08:04:10.170Z,0.54
2023-04-03T08:05:11.040Z,0.45
2023-04-03T08:06:15.279Z,0.44
2023-04-03T08:07:11.101Z,0.58
2023-04-03T08:08:10.092Z,0.49
2023-04-03T08:09:10.050Z,0.45
2023-04-03T08:10:10.048Z,0.54
2023-04-03T08:11:10.000Z,0.58
2023-04-03T08:12:09.993Z,0.75
2023-04-03T08:13:09.960Z,0.51
2023-04-03T08:14:09.953Z,0.45
2023-04-03T08:15:09.939Z,0.40
2023-04-03T08:16:09.982Z,0.27
2023-04-03T08:17:09.896Z,0.48
2023-04-03T08:18:09.931Z,0.49
2023-04-03T08:19:18.823Z,0.37
2023-04-03T08:20:10.886Z,0.51
2023-04-03T08:21:09.833Z,0.56
2023-04-03T08:22:09.804Z,0.44
2023-04-03T08:23:09.803Z,0.45
2023-04-03T08:24:09.778Z,0.47
2023-04-03T08:25:09.777Z,0.70
2023-04-03T08:26:09.812Z,0.40
2023-04-03T08:27:09.735Z,0.63
2023-04-03T08:28:09.724Z,0.45
2023-04-03T08:29:09.683Z,0.54
2023-04-03T08:30:09.679Z,0.44
2023-04-03T08:31:09.718Z,0.84
2023-04-03T08:32:09.649Z,0.45
2023-04-03T08:33:09.719Z,0.50
2023-04-03T08:34:09.760Z,0.53
2023-04-03T08:35:09.574Z,0.61
2023-04-03T08:36:09.600Z,0.48
2023-04-03T08:37:09.557Z,0.57
2023-04-03T08:38:09.586Z,0.70
2023-04-03T08:39:09.594Z,0.76
2023-04-03T08:40:09.599Z,0.61
2023-04-03T08:41:09.647Z,0.46
2023-04-03T08:42:09.642Z,0.65
2023-04-03T08:43:09.623Z,0.61
2023-04-03T08:44:09.747Z,0.88
2023-04-03T08:45:09.691Z,0.53
2023-04-03T08:46:09.700Z,0.56
2023-04-03T08:47:09.765Z,0.83
2023-04-03T08:48:09.812Z,0.83
2023-04-03T08:49:09.745Z,0.82
2023-04-03T08:50:10.611Z,0.78
2023-04-03T08:52:09.792Z,0.71
2023-04-03T08:53:09.811Z,0.59
2023-04-03T08:54:09.885Z,0.72
2023-04-03T08:55:09.791Z,0.51
2023-04-03T08:56:09.827Z,0.61
2023-04-03T08:57:09.889Z,0.41
2023-04-03T08:58:09.854Z,0.63
2023-04-03T08:59:09.866Z,0.43
2023-04-03T09:00:09.892Z,0.56
2023-04-03T09:01:09.868Z,0.77
2023-04-03T09:02:09.937Z,0.64
2023-04-03T09:03:11.298Z,0.58
2023-04-03T09:04:10.039Z,0.68
2023-04-03T09:05:10.588Z,0.90
2023-04-03T09:06:09.960Z,0.53
2023-04-03T09:07:09.950Z,0.60
2023-04-03T09:08:09.997Z,0.60
2023-04-03T09:09:09.967Z,0.76
2023-04-03T09:10:09.977Z,0.45
2023-04-03T09:11:10.014Z,0.75
2023-04-03T09:12:10.006Z,0.70
2023-04-03T09:13:10.034Z,0.63
2023-04-03T09:14:10.014Z,0.69
2023-04-03T09:15:10.022Z,0.60
2023-04-03T09:16:10.079Z,0.66
2023-04-03T09:17:10.069Z,0.53
2023-04-03T09:18:10.086Z,0.65
2023-04-03T09:19:10.220Z,0.58
2023-04-03T09:20:10.076Z,0.53
2023-04-03T09:21:10.092Z,0.54
2023-04-03T09:22:10.094Z,0.60
2023-04-03T09:23:10.075Z,0.74
2023-04-03T09:24:10.095Z,0.77
2023-04-03T09:25:10.111Z,0.77
2023-04-03T09:26:10.127Z,0.69
2023-04-03T09:27:10.153Z,0.58
2023-04-03T09:28:10.110Z,0.73
2023-04-03T09:29:10.142Z,0.66
2023-04-03T09:30:10.144Z,0.94
2023-04-03T09:31:10.192Z,0.59
2023-04-03T09:32:10.136Z,0.70
2023-04-03T09:33:10.212Z,0.68
2023-04-03T09:34:10.149Z,0.72
2023-04-03T09:35:20.770Z,0.66
2023-04-03T09:36:11.254Z,0.69
2023-04-03T09:37:10.120Z,0.87
2023-04-03T09:38:10.126Z,0.80
2023-04-03T09:39:10.098Z,0.61
2023-04-03T09:40:10.088Z,0.67
2023-04-03T09:41:10.253Z,0.75
2023-04-03T09:42:10.017Z,0.78
2023-04-03T09:43:10.121Z,0.54
2023-04-03T09:44:09.997Z,0.78
2023-04-03T09:45:09.950Z,0.79
2023-04-03T09:46:10.007Z,0.65
2023-04-03T09:47:09.939Z,0.79
2023-04-03T09:48:12.711Z,0.85
2023-04-03T09:49:10.868Z,0.57
2023-04-03T09:50:09.866Z,0.59
2023-04-03T09:51:09.915Z,0.58
2023-04-03T09:52:09.805Z,0.71
2023-04-03T09:53:09.871Z,0.87
2023-04-03T09:54:09.805Z,0.63
2023-04-03T09:55:09.793Z,0.82
2023-04-03T09:56:09.791Z,0.82
2023-04-03T09:57:09.769Z,1.06
2023-04-03T09:58:09.701Z,0.76
2023-04-03T09:59:09.678Z,0.86
2023-04-03T10:00:09.645Z,0.60
2023-04-03T10:01:09.653Z,0.76
2023-04-03T10:02:09.602Z,0.72
2023-04-03T10:03:09.652Z,0.71
2023-04-03T10:04:09.649Z,0.75
2023-04-03T10:05:10.217Z,0.62
2023-04-03T10:06:09.549Z,0.68
2023-04-03T10:07:09.589Z,0.74
2023-04-03T10:08:10.399Z,0.88
2023-04-03T10:09:09.523Z,0.89
2023-04-03T10:10:09.449Z,0.70
2023-04-03T10:11:09.431Z,0.81
2023-04-03T10:12:09.400Z,0.77
2023-04-03T10:13:12.153Z,0.99
2023-04-03T10:14:09.644Z,0.87
2023-04-03T10:15:09.327Z,0.79
2023-04-03T10:16:09.335Z,0.67
2023-04-03T10:17:09.287Z,0.73
2023-04-03T10:18:21.750Z,0.77
2023-04-03T10:19:10.218Z,0.61
2023-04-03T10:20:09.230Z,0.58
2023-04-03T10:21:11.888Z,1.08
2023-04-03T10:22:10.150Z,0.90
2023-04-03T10:23:09.317Z,0.75
2023-04-03T10:24:09.091Z,0.65
2023-04-03T10:25:09.066Z,0.83
2023-04-03T10:26:09.169Z,0.81
2023-04-03T10:27:09.069Z,0.72
2023-04-03T10:28:09.014Z,0.54
2023-04-03T10:29:08.994Z,0.98
2023-04-03T10:30:08.971Z,0.92
2023-04-03T10:31:08.984Z,0.69
2023-04-03T10:32:08.900Z,0.78
2023-04-03T10:33:09.767Z,0.63
2023-04-03T10:34:08.861Z,1.00
2023-04-03T10:35:08.838Z,0.66
2023-04-03T10:36:08.781Z,0.67
2023-04-03T10:37:08.753Z,1.06
2023-04-03T10:38:08.755Z,0.98
2023-04-03T10:39:08.813Z,0.95
2023-04-03T10:40:08.703Z,0.89
2023-04-03T10:41:08.659Z,0.64
2023-04-03T10:42:17.177Z,0.90
2023-04-03T10:43:09.614Z,0.62
2023-04-03T10:44:08.596Z,0.71
2023-04-03T10:45:08.584Z,0.84
2023-04-03T10:46:08.636Z,0.72
2023-04-03T10:47:08.524Z,0.65
2023-04-03T10:48:08.565Z,0.80
2023-04-03T10:49:08.483Z,0.77
2023-04-03T10:50:08.486Z,0.73
2023-04-03T10:51:08.483Z,0.95
2023-04-03T10:52:08.384Z,0.90
2023-04-03T10:53:08.376Z,0.64
2023-04-03T10:54:08.330Z,0.93
2023-04-03T10:55:08.394Z,0.78
2023-04-03T10:56:08.276Z,0.99
2023-04-03T10:57:12.518Z,0.82
2023-04-03T10:58:09.227Z,1.09
2023-04-03T10:59:08.204Z,0.78
2023-04-03T11:00:08.191Z,1.11
2023-04-03T11:01:08.236Z,0.80
2023-04-03T11:02:08.146Z,1.01
2023-04-03T11:03:08.159Z,0.88
2023-04-03T11:04:08.189Z,0.75
2023-04-03T11:05:08.058Z,0.70
2023-04-03T11:06:08.042Z,0.73
2023-04-03T11:07:08.015Z,0.68
2023-04-03T11:08:07.994Z,0.66
2023-04-03T11:09:07.962Z,0.93
2023-04-03T11:10:07.919Z,0.94
2023-04-03T11:11:08.003Z,0.77
2023-04-03T11:12:07.869Z,0.96
2023-04-03T11:13:07.840Z,1.05
2023-04-03T11:14:07.807Z,0.98
2023-04-03T11:15:07.779Z,0.96
2023-04-03T11:16:07.841Z,0.76
2023-04-03T11:17:07.719Z,1.00
2023-04-03T11:18:09.748Z,0.89
2023-04-03T11:19:07.647Z,0.69
2023-04-03T11:20:07.612Z,0.87
2023-04-03T11:21:07.612Z,0.75
2023-04-03T11:22:07.589Z,0.93
2023-04-03T11:23:07.561Z,0.99
2023-04-03T11:24:07.527Z,0.85
2023-04-03T11:25:07.497Z,0.70
2023-04-03T11:26:07.464Z,0.83
2023-04-03T11:27:07.512Z,0.65
2023-04-03T11:28:07.548Z,0.54
2023-04-03T11:29:07.430Z,0.73
2023-04-03T11:30:07.384Z,0.83
2023-04-03T11:31:07.411Z,0.69
2023-04-03T11:32:07.306Z,0.84
2023-04-03T11:33:07.287Z,0.83
2023-04-03T11:34:07.300Z,0.88
2023-04-03T11:35:07.195Z,0.78
2023-04-03T11:36:19.016Z,0.75
2023-04-03T11:37:08.144Z,0.84
2023-04-03T11:38:07.108Z,0.75
2023-04-03T11:39:07.127Z,0.75
2023-04-03T11:40:07.057Z,0.92
2023-04-03T11:41:07.073Z,0.95
2023-04-03T11:42:13.167Z,0.57
2023-04-03T11:43:08.056Z,1.05
2023-04-03T11:44:06.962Z,0.70
2023-04-03T11:45:06.932Z,0.80
2023-04-03T11:46:06.898Z,0.57
2023-04-03T11:47:06.954Z,0.90
2023-04-03T11:48:17.116Z,0.67
2023-04-03T11:49:07.794Z,0.66
2023-04-03T11:50:06.767Z,0.70
2023-04-03T11:51:06.843Z,0.77
2023-04-03T11:52:06.761Z,0.72
2023-04-03T11:53:06.699Z,0.83
2023-04-03T11:54:06.674Z,0.88
2023-04-03T11:55:06.638Z,0.87
2023-04-03T11:56:06.668Z,1.01
2023-04-03T11:57:06.714Z,0.51
2023-04-03T11:58:06.626Z,0.63
2023-04-03T11:59:06.637Z,0.56
2023-04-03T12:00:06.510Z,0.95
2023-04-03T12:01:06.512Z,0.73
2023-04-03T12:02:06.504Z,1.88
2023-04-03T12:03:06.552Z,0.68
2023-04-03T12:04:06.455Z,0.80
2023-04-03T12:05:07.130Z,0.85
2023-04-03T12:06:06.421Z,0.83
2023-04-03T12:07:06.349Z,0.75
2023-04-03T12:08:06.334Z,0.84
2023-04-03T12:09:06.301Z,0.67
2023-04-03T12:10:06.352Z,0.77
2023-04-03T12:11:06.301Z,0.84
2023-04-03T12:12:06.271Z,1.18
2023-04-03T12:13:06.276Z,0.82
2023-04-03T12:14:06.316Z,0.84
2023-04-03T12:15:06.325Z,0.78
2023-04-03T12:16:06.195Z,0.94
2023-04-03T12:17:06.209Z,1.01
2023-04-03T12:18:06.194Z,0.85
2023-04-03T12:19:06.146Z,0.81
2023-04-03T12:20:06.122Z,0.71
2023-04-03T12:21:06.096Z,0.73
2023-04-03T12:22:06.098Z,0.69
2023-04-03T12:23:06.842Z,0.73
2023-04-03T12:24:06.032Z,0.70
2023-04-03T12:25:06.093Z,0.83
2023-04-03T12:26:06.080Z,0.66
2023-04-03T12:27:06.032Z,0.74
2023-04-03T12:28:05.997Z,0.65
2023-04-03T12:29:05.957Z,0.60
2023-04-03T12:30:05.932Z,0.67
2023-04-03T12:31:06.155Z,0.62
2023-04-03T12:32:05.938Z,0.70
2023-04-03T12:33:12.389Z,0.78
2023-04-03T12:34:06.834Z,0.75
2023-04-03T12:35:05.831Z,0.74
2023-04-03T12:36:05.818Z,0.55
2023-04-03T12:37:05.764Z,0.88
2023-04-03T12:38:05.770Z,0.84
2023-04-03T12:39:05.753Z,0.81
2023-04-03T12:40:05.713Z,0.79
2023-04-03T12:41:05.690Z,0.67
2023-04-03T12:42:05.657Z,0.76
2023-04-03T12:43:05.665Z,0.65
2023-04-03T12:44:05.626Z,0.81
2023-04-03T12:45:05.596Z,0.65
2023-04-03T12:46:05.697Z,0.96
2023-04-03T12:47:05.688Z,0.80
2023-04-03T12:48:05.615Z,0.94
2023-04-03T12:49:05.499Z,0.68
2023-04-03T12:50:05.476Z,0.86
2023-04-03T12:51:05.512Z,1.00
2023-04-03T12:52:05.436Z,0.86
2023-04-03T12:53:05.392Z,0.89
2023-04-03T12:54:05.381Z,0.94
2023-04-03T12:55:05.409Z,0.98
2023-04-03T12:56:05.372Z,0.85
2023-04-03T12:57:05.341Z,0.92
2023-04-03T12:58:05.276Z,0.88
2023-04-03T12:59:05.275Z,0.83
2023-04-03T13:00:06.172Z,0.99
2023-04-03T13:01:05.242Z,0.73
2023-04-03T13:02:05.372Z,0.96
2023-04-03T13:03:05.340Z,0.79
2023-04-03T13:04:05.200Z,1.04
2023-04-03T13:05:05.148Z,0.90
2023-04-03T13:06:05.139Z,0.81
2023-04-03T13:07:05.120Z,0.63
2023-04-03T13:08:05.121Z,0.87
2023-04-03T13:09:05.312Z,0.87
2023-04-03T13:10:05.056Z,0.89
2023-04-03T13:11:05.029Z,0.76
2023-04-03T13:12:05.024Z,0.78
2023-04-03T13:13:05.028Z,0.73
2023-04-03T13:14:04.983Z,0.78
2023-04-03T13:15:04.958Z,0.62
2023-04-03T13:16:04.962Z,0.77
2023-04-03T13:17:04.944Z,0.72
2023-04-03T13:18:04.955Z,0.67
2023-04-03T13:19:04.955Z,1.04
2023-04-03T13:20:05.695Z,0.78
2023-04-03T13:21:04.841Z,0.75